createdAt,value
2023-04-15T00:01:39.196Z,19.66
2023-04-15T00:04:33.804Z,19.61
2023-04-15T00:07:28.118Z,19.74
2023-04-15T00:10:21.931Z,19.67
2023-04-15T00:13:16.625Z,19.73
2023-04-15T00:16:12.419Z,19.68
2023-04-15T00:19:06.754Z,19.67
2023-04-15T00:21:48.111Z,19.70
2023-04-15T00:24:43.043Z,19.65
2023-04-15T00:27:36.879Z,19.67
2023-04-15T00:30:31.500Z,19.66
2023-04-15T00:33:25.434Z,19.70
2023-04-15T00:36:19.473Z,19.60
2023-04-15T00:39:13.421Z,19.60
2023-04-15T00:42:07.154Z,19.59
2023-04-15T00:45:01.204Z,19.63
2023-04-15T00:47:55.778Z,19.60
2023-04-15T00:50:51.232Z,19.63
2023-04-15T00:53:45.025Z,19.63
2023-04-15T00:56:40.200Z,19.58
2023-04-15T00:59:34.538Z,19.64
2023-04-15T01:02:28.298Z,19.61
2023-04-15T01:05:22.320Z,19.58
2023-04-15T01:08:16.146Z,19.59
2023-04-15T01:11:10.651Z,19.58
2023-04-15T01:14:04.849Z,19.56
2023-04-15T01:16:58.607Z,19.54
2023-04-15T01:19:52.673Z,19.51
2023-04-15T01:22:46.535Z,19.54
2023-04-15T01:25:40.582Z,19.52
2023-04-15T01:28:34.458Z,19.44
2023-04-15T01:31:28.331Z,19.16
2023-04-15T01:34:22.297Z,19.21
2023-04-15T01:37:16.392Z,19.36
2023-04-15T01:40:13.847Z,19.51
2023-04-15T01:43:07.510Z,19.66
2023-04-15T01:46:01.725Z,19.61
2023-04-15T01:48:55.767Z,19.56
2023-04-15T01:51:49.604Z,19.55
2023-04-15T01:54:43.341Z,19.54
2023-04-15T01:57:37.081Z,19.59
2023-04-15T02:00:32.575Z,19.63
2023-04-15T02:03:27.746Z,19.61
2023-04-15T02:06:21.624Z,19.62
2023-04-15T02:09:15.375Z,19.61
2023-04-15T02:12:09.577Z,19.59
2023-04-15T02:15:03.475Z,19.57
2023-04-15T02:17:59.300Z,19.58
2023-04-15T02:20:53.908Z,19.53
2023-04-15T02:23:48.712Z,19.56
2023-04-15T02:26:42.353Z,19.54
2023-04-15T02:29:37.191Z,19.58
2023-04-15T02:32:31.657Z,19.58
2023-04-15T02:35:25.947Z,19.53
2023-04-15T02:38:19.656Z,19.53
2023-04-15T02:41:13.688Z,19.50
2023-04-15T02:44:11.314Z,19.50
2023-04-15T02:47:07.008Z,19.50
2023-04-15T02:50:01.817Z,19.49
2023-04-15T02:52:55.399Z,19.47
2023-04-15T02:55:49.212Z,19.48
2023-04-15T02:58:44.717Z,19.46
2023-04-15T03:01:38.474Z,19.47
2023-04-15T03:04:32.179Z,19.47
2023-04-15T03:07:25.910Z,19.42
2023-04-15T03:10:20.038Z,19.41
2023-04-15T03:13:14.056Z,19.45
2023-04-15T03:16:08.750Z,19.41
2023-04-15T03:19:02.655Z,19.37
2023-04-15T03:21:57.133Z,19.37
2023-04-15T03:24:50.774Z,19.43
2023-04-15T03:27:44.723Z,19.33
2023-04-15T03:30:38.396Z,19.42
2023-04-15T03:33:32.153Z,19.44
2023-04-15T03:36:27.279Z,19.39
2023-04-15T03:39:21.434Z,19.36
2023-04-15T03:42:15.636Z,19.37
2023-04-15T03:45:11.665Z,19.39
2023-04-15T03:48:16.713Z,19.34
2023-04-15T03:51:12.396Z,19.29
2023-04-15T03:54:06.391Z,19.30
2023-04-15T03:56:59.992Z,19.33
2023-04-15T03:59:53.731Z,19.30
2023-04-15T04:02:47.578Z,19.28
2023-04-15T04:05:44.052Z,19.33
2023-04-15T04:08:37.788Z,19.30
2023-04-15T04:11:31.758Z,19.28
2023-04-15T04:14:29.665Z,19.40
2023-04-15T04:17:23.609Z,19.29
2023-04-15T04:20:17.596Z,19.28
2023-04-15T04:23:11.639Z,19.25
2023-04-15T04:26:05.361Z,19.29
2023-04-15T04:28:59.099Z,19.26
2023-04-15T04:31:52.829Z,19.28
2023-04-15T04:34:46.788Z,19.24
2023-04-15T04:37:40.625Z,19.31
2023-04-15T04:40:34.977Z,19.32
2023-04-15T04:43:28.917Z,19.28
2023-04-15T04:46:23.787Z,19.27
2023-04-15T04:49:17.627Z,19.28
2023-04-15T04:52:11.635Z,18.86
2023-04-15T04:55:05.922Z,18.60
2023-04-15T04:58:01.257Z,19.07
2023-04-15T05:00:55.244Z,19.19
2023-04-15T05:03:45.799Z,19.24
2023-04-15T05:06:39.618Z,19.31
2023-04-15T05:09:36.111Z,19.29
2023-04-15T05:12:29.995Z,19.28
2023-04-15T05:15:23.970Z,19.28
2023-04-15T05:18:17.649Z,19.35
2023-04-15T05:21:11.863Z,19.34
2023-04-15T05:24:07.131Z,19.29
2023-04-15T05:27:01.905Z,19.32
2023-04-15T05:29:56.611Z,19.28
2023-04-15T05:32:50.975Z,19.19
2023-04-15T05:35:44.633Z,19.23
2023-04-15T05:38:38.459Z,19.25
2023-04-15T05:41:32.437Z,19.25
2023-04-15T05:44:26.894Z,19.33
2023-04-15T05:47:20.492Z,19.30
2023-04-15T05:50:15.129Z,19.39
2023-04-15T05:53:08.998Z,19.36
2023-04-15T05:56:02.636Z,19.34
2023-04-15T05:58:56.953Z,19.32
2023-04-15T06:01:52.078Z,19.26
2023-04-15T06:04:45.744Z,19.23
2023-04-15T06:07:39.704Z,19.28
2023-04-15T06:10:36.723Z,19.26
2023-04-15T06:13:30.655Z,19.26
2023-04-15T06:16:24.341Z,19.31
2023-04-15T06:19:18.379Z,19.42
2023-04-15T06:22:12.109Z,19.25
2023-04-15T06:25:08.162Z,19.28
2023-04-15T06:28:02.312Z,19.31
2023-04-15T06:30:57.326Z,19.41
2023-04-15T06:33:51.376Z,19.38
2023-04-15T06:36:45.558Z,19.38
2023-04-15T06:39:39.587Z,19.39
2023-04-15T06:42:34.075Z,19.39
2023-04-15T06:45:27.805Z,19.47
2023-04-15T06:48:22.070Z,19.66
2023-04-15T06:51:15.764Z,19.49
2023-04-15T06:54:09.858Z,19.43
2023-04-15T06:57:03.665Z,19.46
2023-04-15T06:59:57.356Z,19.48
2023-04-15T07:03:13.275Z,19.48
2023-04-15T07:06:07.688Z,19.52
2023-04-15T07:09:02.315Z,19.48
2023-04-15T07:11:56.522Z,19.60
2023-04-15T07:14:50.603Z,19.46
2023-04-15T07:17:45.014Z,19.61
2023-04-15T07:20:38.918Z,19.49
2023-04-15T07:23:32.766Z,19.62
2023-04-15T07:26:26.387Z,19.55
2023-04-15T07:29:20.029Z,19.52
2023-04-15T07:32:13.644Z,19.52
2023-04-15T07:35:08.429Z,19.64
2023-04-15T07:38:02.498Z,19.53
2023-04-15T07:40:56.597Z,19.58
2023-04-15T07:43:50.752Z,19.66
2023-04-15T07:46:44.528Z,19.62
2023-04-15T07:49:38.139Z,19.70
2023-04-15T07:52:35.295Z,19.30
2023-04-15T07:55:30.542Z,19.38
2023-04-15T07:58:24.255Z,19.31
2023-04-15T08:01:17.963Z,19.21
2023-04-15T08:04:12.442Z,19.24
2023-04-15T08:07:07.099Z,19.19
2023-04-15T08:10:00.647Z,20.06
2023-04-15T08:12:55.330Z,19.87
2023-04-15T08:15:54.902Z,19.37
2023-04-15T08:18:48.756Z,19.21
2023-04-15T08:21:42.465Z,17.90
2023-04-15T08:24:21.341Z,18.14
2023-04-15T08:27:15.036Z,17.87
2023-04-15T08:30:11.603Z,17.95
2023-04-15T08:33:05.273Z,17.58
2023-04-15T08:35:58.994Z,17.84
2023-04-15T08:38:52.694Z,17.64
2023-04-15T08:41:53.249Z,17.72
2023-04-15T08:44:49.391Z,17.95
2023-04-15T08:47:44.211Z,18.74
2023-04-15T08:50:38.119Z,19.24
2023-04-15T08:53:33.733Z,19.37
2023-04-15T08:56:29.321Z,19.49
2023-04-15T08:59:23.665Z,19.78
2023-04-15T09:02:17.631Z,18.94
2023-04-15T09:05:13.385Z,19.28
2023-04-15T09:08:07.600Z,19.60
2023-04-15T09:11:01.470Z,18.26
2023-04-15T09:13:55.438Z,18.21
2023-04-15T09:17:06.865Z,17.80
2023-04-15T09:20:15.921Z,17.90
2023-04-15T09:23:17.618Z,17.88
2023-04-15T09:26:11.500Z,17.64
2023-04-15T09:29:11.020Z,17.41
2023-04-15T09:32:14.693Z,17.26
2023-04-15T09:35:17.258Z,17.48
2023-04-15T09:38:13.044Z,17.09
2023-04-15T09:41:18.456Z,17.32
2023-04-15T09:44:25.176Z,17.37
2023-04-15T09:47:33.314Z,17.33
2023-04-15T09:50:30.667Z,17.85
2023-04-15T09:53:26.396Z,18.41
2023-04-15T09:56:27.937Z,18.64
2023-04-15T09:59:21.921Z,17.78
2023-04-15T10:02:16.925Z,17.48
2023-04-15T10:05:15.006Z,18.12
2023-04-15T10:08:09.431Z,18.30
2023-04-15T10:11:05.666Z,18.59
2023-04-15T10:14:00.326Z,18.72
2023-04-15T10:16:57.740Z,18.78
2023-04-15T10:19:54.493Z,18.96
2023-04-15T10:22:49.806Z,19.16
2023-04-15T10:25:44.416Z,19.35
2023-04-15T10:28:38.106Z,19.28
2023-04-15T10:31:32.540Z,19.57
2023-04-15T10:34:27.943Z,19.42
2023-04-15T10:37:37.375Z,19.57
2023-04-15T10:40:33.653Z,19.29
2023-04-15T10:43:30.415Z,19.00
2023-04-15T10:46:37.209Z,19.53
2023-04-15T10:49:31.263Z,19.40
2023-04-15T10:52:30.041Z,19.09
2023-04-15T10:55:27.419Z,19.43
2023-04-15T10:58:24.296Z,19.26
2023-04-15T11:01:18.105Z,19.03
2023-04-15T11:04:13.106Z,19.06
2023-04-15T11:07:11.562Z,19.28
2023-04-15T11:10:26.042Z,19.02
2023-04-15T11:13:28.933Z,19.31
2023-04-15T11:16:23.005Z,19.25
2023-04-15T11:19:16.735Z,19.21
2023-04-15T11:22:14.403Z,19.51
2023-04-15T11:25:07.480Z,19.32
2023-04-15T11:28:03.299Z,19.65
2023-04-15T11:30:57.945Z,19.38
2023-04-15T11:34:12.128Z,19.27
2023-04-15T11:37:08.311Z,19.16
2023-04-15T11:40:03.545Z,19.09
2023-04-15T11:43:11.512Z,19.62
2023-04-15T11:46:05.773Z,19.70
2023-04-15T11:49:00.331Z,19.88
2023-04-15T11:51:54.170Z,19.79
2023-04-15T11:54:48.282Z,19.80
2023-04-15T11:57:42.079Z,19.40
2023-04-15T12:00:36.576Z,19.29
2023-04-15T12:03:33.038Z,19.36
2023-04-15T12:06:34.998Z,19.42
2023-04-15T12:09:29.979Z,19.70
2023-04-15T12:12:27.971Z,19.38
2023-04-15T12:15:25.344Z,19.56
2023-04-15T12:18:26.218Z,19.75
2023-04-15T12:21:21.811Z,19.39
2023-04-15T12:24:16.344Z,19.83
2023-04-15T12:27:12.440Z,19.90
2023-04-15T12:30:11.690Z,19.78
2023-04-15T12:33:06.355Z,19.98
2023-04-15T12:36:00.533Z,20.04
2023-04-15T12:39:07.796Z,19.99
2023-04-15T12:42:02.366Z,19.76
2023-04-15T12:44:58.430Z,20.00
2023-04-15T12:47:52.215Z,19.98
2023-04-15T12:50:45.827Z,19.88
2023-04-15T12:53:39.776Z,19.94
2023-04-15T12:56:33.935Z,19.98
2023-04-15T12:59:27.734Z,19.99
2023-04-15T13:02:25.698Z,19.86
2023-04-15T13:05:19.838Z,19.96
2023-04-15T13:08:13.514Z,19.88
2023-04-15T13:11:07.603Z,19.85
2023-04-15T13:14:02.316Z,19.62
2023-04-15T13:16:56.454Z,19.90
2023-04-15T13:19:50.455Z,19.93
2023-04-15T13:22:44.432Z,19.93
2023-04-15T13:25:38.175Z,19.97
2023-04-15T13:28:31.948Z,19.89
2023-04-15T13:31:25.721Z,19.54
2023-04-15T13:34:19.735Z,18.89
2023-04-15T13:37:14.074Z,18.58
2023-04-15T13:40:09.997Z,18.57
2023-04-15T13:43:04.759Z,18.63
2023-04-15T13:45:59.073Z,18.51
2023-04-15T13:48:53.030Z,19.08
2023-04-15T13:51:46.994Z,19.40
2023-04-15T13:54:40.899Z,19.61
2023-04-15T13:57:35.452Z,19.74
2023-04-15T14:00:29.511Z,19.84
2023-04-15T14:03:23.264Z,19.90
2023-04-15T14:06:17.274Z,20.02
2023-04-15T14:09:11.397Z,19.90
2023-04-15T14:12:05.981Z,19.94
2023-04-15T14:14:59.834Z,19.99
2023-04-15T14:17:53.981Z,19.99
2023-04-15T14:20:48.072Z,19.88
2023-04-15T14:23:41.969Z,20.06
2023-04-15T14:26:35.788Z,19.99
2023-04-15T14:29:29.970Z,20.01
2023-04-15T14:32:26.256Z,20.05
2023-04-15T14:35:20.897Z,19.70
2023-04-15T14:38:14.833Z,19.94
2023-04-15T14:41:12.298Z,19.72
2023-04-15T14:44:06.138Z,19.57
2023-04-15T14:47:00.033Z,19.78
2023-04-15T14:50:02.399Z,19.65
2023-04-15T14:52:56.250Z,19.99
2023-04-15T14:55:50.528Z,20.15
2023-04-15T14:58:44.665Z,19.92
2023-04-15T15:01:40.296Z,19.81
2023-04-15T15:04:36.034Z,19.75
2023-04-15T15:07:30.070Z,19.87
2023-04-15T15:10:33.698Z,19.88
2023-04-15T15:13:38.895Z,20.20
2023-04-15T15:16:33.265Z,19.91
2023-04-15T15:19:27.439Z,20.13
2023-04-15T15:22:21.513Z,19.91
2023-04-15T15:25:15.361Z,20.09
2023-04-15T15:28:09.449Z,20.06
2023-04-15T15:31:04.517Z,19.94
2023-04-15T15:33:58.651Z,19.97
2023-04-15T15:36:53.059Z,19.94
2023-04-15T15:39:50.841Z,19.86
2023-04-15T15:42:45.146Z,19.83
2023-04-15T15:45:38.965Z,19.90
2023-04-15T15:48:34.268Z,19.88
2023-04-15T15:51:28.769Z,19.72
2023-04-15T15:54:22.676Z,19.78
2023-04-15T15:57:16.860Z,20.04
2023-04-15T16:00:13.945Z,19.68
2023-04-15T16:03:08.172Z,19.89
2023-04-15T16:06:02.138Z,19.96
2023-04-15T16:08:55.879Z,19.96
2023-04-15T16:11:50.304Z,20.32
2023-04-15T16:14:44.415Z,19.83
2023-04-15T16:17:38.407Z,19.64
2023-04-15T16:20:32.179Z,20.10
2023-04-15T16:23:26.008Z,20.05
2023-04-15T16:26:20.080Z,20.34
2023-04-15T16:29:14.272Z,20.16
2023-04-15T16:32:09.469Z,19.83
2023-04-15T16:35:03.595Z,19.64
2023-04-15T16:37:57.785Z,19.40
2023-04-15T16:40:51.567Z,19.42
2023-04-15T16:43:44.626Z,19.36
2023-04-15T16:46:40.802Z,19.02
2023-04-15T16:49:35.580Z,18.79
2023-04-15T16:52:30.231Z,18.74
2023-04-15T16:55:24.634Z,18.53
2023-04-15T16:58:18.553Z,18.41
2023-04-15T17:01:12.335Z,18.30
2023-04-15T17:04:06.738Z,18.06
2023-04-15T17:07:00.433Z,17.85
2023-04-15T17:09:54.904Z,17.81
2023-04-15T17:12:49.780Z,17.56
2023-04-15T17:15:43.892Z,17.64
2023-04-15T17:18:37.791Z,18.18
2023-04-15T17:21:32.647Z,18.78
2023-04-15T17:24:26.571Z,18.99
2023-04-15T17:27:21.272Z,19.33
2023-04-15T17:30:16.226Z,19.50
2023-04-15T17:33:55.826Z,19.46
2023-04-15T17:36:24.745Z,19.67
2023-04-15T17:39:18.931Z,19.70
2023-04-15T17:42:14.448Z,19.40
2023-04-15T17:45:10.798Z,19.38
2023-04-15T17:48:05.620Z,19.33
2023-04-15T17:50:59.671Z,19.08
2023-04-15T17:53:53.637Z,19.28
2023-04-15T17:56:49.079Z,19.39
2023-04-15T17:59:44.042Z,18.92
2023-04-15T18:02:38.116Z,17.93
2023-04-15T18:05:32.308Z,18.58
2023-04-15T18:08:26.118Z,19.08
2023-04-15T18:11:20.535Z,19.10
2023-04-15T18:14:26.669Z,19.12
2023-04-15T18:17:27.600Z,18.89
2023-04-15T18:20:21.726Z,18.86
2023-04-15T18:23:15.983Z,18.92
2023-04-15T18:26:10.259Z,19.10
2023-04-15T18:29:04.567Z,19.44
2023-04-15T18:31:59.958Z,19.37
2023-04-15T18:34:55.567Z,19.44
2023-04-15T18:37:49.704Z,19.24
2023-04-15T18:40:43.807Z,19.23
2023-04-15T18:43:37.852Z,19.43
2023-04-15T18:46:31.947Z,19.75
2023-04-15T18:49:27.166Z,19.86
2023-04-15T18:52:21.409Z,19.84
2023-04-15T18:55:16.567Z,19.87
2023-04-15T18:58:12.631Z,19.99
2023-04-15T19:01:06.778Z,20.02
2023-04-15T19:04:03.343Z,19.96
2023-04-15T19:06:58.732Z,19.94
2023-04-15T19:09:52.566Z,19.63
2023-04-15T19:12:46.443Z,19.65
2023-04-15T19:15:40.354Z,19.79
2023-04-15T19:18:34.566Z,20.00
2023-04-15T19:21:29.998Z,20.05
2023-04-15T19:24:24.287Z,20.03
2023-04-15T19:27:18.242Z,20.02
2023-04-15T19:30:14.328Z,20.08
2023-04-15T19:33:08.591Z,20.10
2023-04-15T19:36:05.348Z,20.16
2023-04-15T19:39:00.115Z,20.05
2023-04-15T19:41:55.528Z,20.01
2023-04-15T19:44:50.161Z,19.99
2023-04-15T19:47:44.285Z,19.94
2023-04-15T19:50:38.256Z,19.71
2023-04-15T19:53:32.427Z,18.72
2023-04-15T19:56:26.697Z,18.41
2023-04-15T19:59:20.564Z,18.15
2023-04-15T20:02:14.444Z,18.14
2023-04-15T20:05:10.537Z,17.91
2023-04-15T20:08:04.641Z,17.67
2023-04-15T20:10:59.541Z,17.94
2023-04-15T20:13:53.223Z,18.84
2023-04-15T20:16:47.686Z,19.37
2023-04-15T20:19:41.339Z,19.50
2023-04-15T20:22:35.403Z,19.58
2023-04-15T20:25:29.305Z,19.72
2023-04-15T20:28:26.119Z,19.91
2023-04-15T20:31:20.129Z,19.85
2023-04-15T20:34:13.965Z,19.91
2023-04-15T20:37:08.043Z,20.00
2023-04-15T20:40:02.505Z,19.95
2023-04-15T20:42:56.321Z,19.98
2023-04-15T20:45:50.628Z,19.96
2023-04-15T20:48:44.296Z,19.96
2023-04-15T20:51:38.324Z,19.99
2023-04-15T20:54:32.152Z,20.11
2023-04-15T20:57:25.918Z,20.12
2023-04-15T21:00:19.761Z,20.08
2023-04-15T21:03:13.930Z,20.04
2023-04-15T21:06:07.939Z,20.02
2023-04-15T21:09:01.560Z,19.88
2023-04-15T21:12:01.071Z,20.08
2023-04-15T21:14:55.524Z,20.16
2023-04-15T21:17:49.144Z,20.15
2023-04-15T21:20:43.495Z,20.15
2023-04-15T21:23:37.230Z,20.19
2023-04-15T21:26:30.912Z,20.12
2023-04-15T21:29:24.959Z,20.15
2023-04-15T21:32:18.769Z,20.11
2023-04-15T21:35:13.565Z,20.15
2023-04-15T21:38:07.198Z,20.16
2023-04-15T21:41:06.424Z,20.20
2023-04-15T21:44:00.066Z,20.23
2023-04-15T21:46:54.363Z,20.18
2023-04-15T21:49:47.975Z,20.21
2023-04-15T21:52:42.062Z,20.30
2023-04-15T21:55:35.892Z,20.13
2023-04-15T21:58:29.498Z,20.10
2023-04-15T22:01:23.067Z,20.20
2023-04-15T22:04:17.087Z,20.06
2023-04-15T22:07:10.874Z,20.22
2023-04-15T22:10:05.049Z,20.20
2023-04-15T22:13:02.434Z,20.50
2023-04-15T22:15:46.311Z,20.33
2023-04-15T22:18:39.948Z,20.10
2023-04-15T22:21:33.541Z,20.14
2023-04-15T22:24:38.182Z,20.27
2023-04-15T22:27:34.888Z,19.93
2023-04-15T22:30:29.239Z,19.99
2023-04-15T22:33:23.312Z,20.00
2023-04-15T22:36:17.148Z,20.00
2023-04-15T22:39:11.061Z,20.09
2023-04-15T22:42:04.747Z,20.08
2023-04-15T22:44:58.597Z,20.11
2023-04-15T22:47:52.190Z,20.03
2023-04-15T22:50:46.145Z,20.18
2023-04-15T22:53:39.708Z,20.35
2023-04-15T22:56:33.380Z,20.28
2023-04-15T22:59:27.232Z,20.25
2023-04-15T23:02:21.063Z,20.33
2023-04-15T23:05:15.556Z,20.18
2023-04-15T23:08:09.783Z,20.23
2023-04-15T23:11:03.741Z,20.14
2023-04-15T23:13:57.418Z,20.15
2023-04-15T23:16:51.135Z,20.17
2023-04-15T23:19:44.673Z,20.07
2023-04-15T23:22:38.535Z,20.11
2023-04-15T23:25:32.214Z,20.15
2023-04-15T23:28:26.050Z,20.13
2023-04-15T23:31:19.761Z,20.21
2023-04-15T23:34:13.613Z,20.23
2023-04-15T23:37:07.364Z,20.13
2023-04-15T23:40:01.033Z,20.07
2023-04-15T23:42:54.634Z,19.71
2023-04-15T23:45:48.448Z,19.90
2023-04-15T23:48:42.115Z,19.87
2023-04-15T23:51:36.184Z,20.05
2023-04-15T23:54:20.073Z,19.96
2023-04-15T23:57:14.204Z,20.00
